Time;durP1;ratioP1;P1;durP2;ratioP2;P2;SDS_P1;SDS_P2;PMS_P1;PMS_P2;Temp;Humidity;BMP_temperature;BMP_pressure;BME280_temperature;BME280_humidity;BME280_pressure;Samples;Min_cycle;Max_cycle;Signal;HPM_P1;HPM_P2
2023/05/26 00:00:50;;;;;;;19.85;5.22;;;8.80;99.90;;;;;;5041036;28;20036;-76
2023/05/26 00:03:16;;;;;;;22.10;5.03;;;8.80;99.90;;;;;;5038935;28;20710;-75
2023/05/26 00:05:43;;;;;;;26.42;5.53;;;8.80;99.90;;;;;;5039126;28;20040;-76
2023/05/26 00:08:09;;;;;;;23.75;5.35;;;8.80;99.90;;;;;;5031043;28;20035;-76
2023/05/26 00:10:35;;;;;;;24.23;4.90;;;8.80;99.90;;;;;;5056705;28;20037;-76
2023/05/26 00:13:01;;;;;;;25.23;5.22;;;8.80;99.90;;;;;;5061643;28;20502;-75
2023/05/26 00:15:27;;;;;;;29.05;5.30;;;8.80;99.90;;;;;;5060204;28;20079;-75
2023/05/26 00:17:52;;;;;;;27.15;5.38;;;8.80;99.90;;;;;;5040667;28;20044;-76
2023/05/26 00:20:18;;;;;;;31.23;6.53;;;8.80;99.90;;;;;;5059445;28;20123;-76
2023/05/26 00:22:44;;;;;;;21.73;5.88;;;8.80;99.90;;;;;;5035951;28;20053;-76
2023/05/26 00:25:10;;;;;;;22.48;5.03;;;8.80;99.90;;;;;;5061794;28;20517;-75
2023/05/26 00:27:36;;;;;;;22.10;5.05;;;8.70;99.90;;;;;;5057668;28;20573;-76
2023/05/26 00:30:02;;;;;;;30.35;5.85;;;8.70;99.90;;;;;;5039841;28;20115;-76
2023/05/26 00:32:28;;;;;;;25.23;5.97;;;8.70;99.90;;;;;;5039923;28;20041;-76
2023/05/26 00:34:54;;;;;;;23.30;5.78;;;8.70;99.90;;;;;;5046237;28;20143;-75
2023/05/26 00:37:21;;;;;;;26.38;6.20;;;8.70;99.90;;;;;;5047226;28;20032;-76
2023/05/26 00:39:47;;;;;;;24.23;5.15;;;8.70;99.90;;;;;;5039044;28;20086;-75
2023/05/26 00:42:13;;;;;;;30.42;5.88;;;8.60;99.90;;;;;;5038340;28;20037;-75
2023/05/26 00:44:39;;;;;;;30.95;5.85;;;8.60;99.90;;;;;;5065442;28;20033;-75
2023/05/26 00:47:04;;;;;;;25.98;4.90;;;8.60;99.90;;;;;;5060781;28;20036;-75
2023/05/26 00:49:33;;;;;;;24.70;4.75;;;8.60;99.90;;;;;;5048824;28;20048;-76
2023/05/26 00:51:58;;;;;;;26.70;5.43;;;8.60;99.90;;;;;;5059669;28;20040;-76
2023/05/26 00:54:24;;;;;;;24.65;5.45;;;8.60;99.90;;;;;;5041458;28;20114;-76
2023/05/26 00:56:54;;;;;;;25.77;5.57;;;8.60;99.90;;;;;;5047928;28;20044;-75
2023/05/26 00:59:21;;;;;;;25.17;5.05;;;8.60;99.90;;;;;;5043935;28;20115;-75
2023/05/26 01:01:49;;;;;;;24.70;4.80;;;8.60;99.90;;;;;;5062147;28;20151;-76
2023/05/26 01:04:15;;;;;;;22.77;5.13;;;8.60;99.90;;;;;;5056850;28;20048;-76
2023/05/26 01:06:44;;;;;;;24.90;5.13;;;8.50;99.90;;;;;;5063097;28;20032;-75
2023/05/26 01:09:11;;;;;;;30.77;5.82;;;8.50;99.90;;;;;;5062127;28;20354;-76
2023/05/26 01:11:52;;;;;;;24.50;5.38;;;8.50;99.90;;;;;;5044822;28;20106;-75
2023/05/26 01:14:47;;;;;;;23.05;6.15;;;8.50;99.90;;;;;;5040670;28;20045;-75
2023/05/26 01:17:22;;;;;;;25.27;4.85;;;8.50;99.90;;;;;;5042407;28;20166;-75
2023/05/26 01:19:53;;;;;;;24.10;5.07;;;8.40;99.90;;;;;;5061700;28;21093;-75
2023/05/26 01:22:36;;;;;;;21.95;4.72;;;8.40;99.90;;;;;;5050714;28;20041;-76
2023/05/26 01:25:44;;;;;;;22.20;5.15;;;8.40;99.90;;;;;;5043906;28;20039;-76
2023/05/26 01:28:20;;;;;;;21.52;4.97;;;8.40;99.90;;;;;;5045297;28;20047;-75
2023/05/26 01:30:47;;;;;;;23.92;4.78;;;8.30;99.90;;;;;;5034817;28;20036;-75
2023/05/26 01:33:13;;;;;;;25.38;5.35;;;8.40;99.90;;;;;;5060979;28;20521;-76
2023/05/26 01:35:38;;;;;;;24.95;5.18;;;8.50;99.90;;;;;;5058617;28;20037;-76
2023/05/26 01:38:06;;;;;;;28.25;5.50;;;8.30;99.90;;;;;;5028124;28;20055;-75
2023/05/26 01:40:32;;;;;;;20.08;5.38;;;8.30;99.90;;;;;;5060059;28;20124;-75
2023/05/26 01:43:02;;;;;;;22.83;5.20;;;8.30;99.90;;;;;;5046110;28;20044;-75
2023/05/26 01:45:38;;;;;;;25.35;5.30;;;8.30;99.90;;;;;;5039275;28;20036;-76
2023/05/26 01:48:07;;;;;;;26.55;5.38;;;8.30;99.90;;;;;;5038561;28;20045;-75
2023/05/26 01:50:40;;;;;;;23.95;5.07;;;8.30;99.90;;;;;;5041024;28;20063;-75
2023/05/26 01:53:09;;;;;;;23.95;5.32;;;8.30;99.90;;;;;;5060379;28;20063;-75
2023/05/26 01:55:38;;;;;;;25.30;5.40;;;8.30;99.90;;;;;;5031404;28;20032;-76
2023/05/26 01:58:05;;;;;;;24.85;5.35;;;8.20;99.90;;;;;;5037523;28;20047;-75
2023/05/26 02:00:31;;;;;;;22.42;5.85;;;8.30;99.90;;;;;;5061163;28;20102;-76
2023/05/26 02:02:57;;;;;;;26.13;5.50;;;8.20;99.90;;;;;;5059263;28;20068;-76
2023/05/26 02:05:22;;;;;;;18.67;4.97;;;8.20;99.90;;;;;;5036802;28;20495;-75
2023/05/26 02:07:50;;;;;;;23.38;5.35;;;8.20;99.90;;;;;;5059954;28;20207;-76
2023/05/26 02:10:16;;;;;;;24.83;5.63;;;9.30;99.90;;;;;;5047280;28;20131;-76
2023/05/26 02:12:41;;;;;;;23.83;5.35;;;8.20;99.90;;;;;;5033315;28;20127;-76
2023/05/26 02:15:07;;;;;;;24.67;5.18;;;8.20;99.90;;;;;;5058670;28;20051;-76
2023/05/26 02:17:33;;;;;;;25.50;5.22;;;8.20;99.90;;;;;;5008676;28;20040;-75
2023/05/26 02:19:59;;;;;;;23.67;4.53;;;8.20;99.90;;;;;;5060520;28;20043;-75
2023/05/26 02:22:25;;;;;;;25.00;5.45;;;8.20;99.90;;;;;;5063226;28;20045;-76
2023/05/26 02:24:50;;;;;;;29.73;5.57;;;8.10;99.90;;;;;;5059081;28;20072;-76
2023/05/26 02:27:16;;;;;;;24.42;4.60;;;8.10;99.90;;;;;;5060316;28;20542;-76
2023/05/26 02:29:42;;;;;;;24.52;5.28;;;8.10;99.90;;;;;;5045889;28;20245;-75
2023/05/26 02:32:07;;;;;;;23.13;5.75;;;8.10;99.90;;;;;;5058464;28;20498;-76
2023/05/26 02:34:33;;;;;;;22.00;4.97;;;8.00;99.90;;;;;;5061565;28;20144;-75
2023/05/26 02:36:59;;;;;;;26.90;5.80;;;8.00;99.90;;;;;;5062608;28;20041;-76
2023/05/26 02:39:25;;;;;;;25.25;5.30;;;8.10;99.90;;;;;;5057439;28;20040;-75
2023/05/26 02:41:52;;;;;;;24.13;5.25;;;7.90;99.90;;;;;;5045515;28;20111;-75
2023/05/26 02:44:18;;;;;;;25.70;4.85;;;8.10;99.90;;;;;;5041963;28;20032;-76
2023/05/26 02:46:43;;;;;;;25.83;4.93;;;8.10;99.90;;;;;;5064189;28;20074;-75
2023/05/26 02:49:09;;;;;;;23.17;5.20;;;8.10;99.90;;;;;;5041966;28;20040;-75
2023/05/26 02:51:35;;;;;;;22.52;4.97;;;8.10;99.90;;;;;;5038194;28;20437;-76
2023/05/26 02:54:01;;;;;;;21.67;4.47;;;8.30;99.90;;;;;;5041007;28;20056;-76
2023/05/26 02:56:27;;;;;;;21.77;5.05;;;8.10;99.90;;;;;;5040278;28;20043;-75
2023/05/26 02:58:53;;;;;;;25.85;5.13;;;8.10;99.90;;;;;;5060340;28;20028;-75
2023/05/26 03:01:18;;;;;;;27.17;5.28;;;8.10;99.90;;;;;;5051411;28;20397;-75
2023/05/26 03:03:44;;;;;;;26.00;4.95;;;8.10;99.90;;;;;;5027987;28;20098;-76
2023/05/26 03:06:10;;;;;;;24.92;5.85;;;8.10;99.90;;;;;;5043239;28;20110;-76
2023/05/26 03:08:37;;;;;;;26.10;5.65;;;8.30;99.90;;;;;;5042894;28;20037;-76
2023/05/26 03:11:04;;;;;;;25.88;5.55;;;8.00;99.90;;;;;;5010463;28;20033;-76
2023/05/26 03:13:30;;;;;;;22.63;5.10;;;8.00;99.90;;;;;;5040758;28;20490;-75
2023/05/26 03:15:55;;;;;;;22.80;4.82;;;8.10;99.90;;;;;;5027414;28;20053;-75
2023/05/26 03:18:21;;;;;;;26.65;5.13;;;8.20;99.90;;;;;;5037459;28;20476;-76
2023/05/26 03:20:47;;;;;;;23.98;5.22;;;8.10;99.90;;;;;;5038594;28;20195;-75
2023/05/26 03:23:22;;;;;;;20.85;4.75;;;8.10;99.90;;;;;;5060690;28;20082;-76
2023/05/26 03:25:47;;;;;;;23.88;4.93;;;8.10;99.90;;;;;;5042530;28;20041;-76
2023/05/26 03:28:13;;;;;;;23.38;4.95;;;8.10;99.90;;;;;;5042711;28;20048;-75
2023/05/26 03:30:39;;;;;;;26.40;5.07;;;8.10;99.90;;;;;;5035378;28;20262;-76
2023/05/26 03:33:04;;;;;;;24.73;4.88;;;8.10;99.90;;;;;;5043734;28;20052;-76
2023/05/26 03:35:31;;;;;;;24.30;5.93;;;8.10;99.90;;;;;;5028949;28;20033;-75
2023/05/26 03:37:56;;;;;;;21.88;5.20;;;8.10;99.90;;;;;;5042371;28;20064;-75
2023/05/26 03:40:22;;;;;;;21.23;4.90;;;8.10;99.90;;;;;;5039227;28;20128;-75
2023/05/26 03:42:48;;;;;;;22.05;4.40;;;8.10;99.90;;;;;;5040945;28;20071;-76
2023/05/26 03:45:13;;;;;;;26.65;6.28;;;8.10;99.90;;;;;;5008782;28;20029;-76
2023/05/26 03:47:39;;;;;;;24.15;5.40;;;8.10;99.90;;;;;;5060748;28;20577;-75
2023/05/26 03:50:05;;;;;;;25.48;4.72;;;8.00;99.90;;;;;;5039610;28;20339;-76
2023/05/26 03:52:32;;;;;;;24.60;5.25;;;8.10;99.90;;;;;;5058151;28;20041;-76
2023/05/26 03:54:57;;;;;;;22.27;5.30;;;8.10;99.90;;;;;;5039073;28;20032;-76
2023/05/26 03:57:24;;;;;;;23.95;5.28;;;8.10;99.90;;;;;;5037872;28;20048;-76
2023/05/26 03:59:49;;;;;;;25.85;5.30;;;8.10;99.90;;;;;;5052974;28;20037;-76
2023/05/26 04:02:16;;;;;;;22.90;5.18;;;8.20;99.90;;;;;;5016593;28;20066;-76
2023/05/26 04:04:42;;;;;;;24.88;4.78;;;8.20;99.90;;;;;;5056273;28;20286;-76
2023/05/26 04:07:08;;;;;;;23.05;5.30;;;8.20;99.90;;;;;;5057106;28;20639;-76
2023/05/26 04:09:34;;;;;;;20.08;4.90;;;8.20;99.90;;;;;;5044101;28;20043;-75
2023/05/26 04:12:00;;;;;;;30.17;6.05;;;8.30;99.90;;;;;;5061689;28;20048;-75
2023/05/26 04:14:26;;;;;;;26.40;5.75;;;8.40;99.90;;;;;;5041287;28;20040;-75
2023/05/26 04:16:52;;;;;;;22.63;5.50;;;8.40;99.90;;;;;;5051035;28;20041;-76
2023/05/26 04:19:18;;;;;;;24.45;4.75;;;8.40;99.90;;;;;;5056489;28;20044;-76
2023/05/26 04:21:44;;;;;;;25.40;4.65;;;8.50;99.90;;;;;;5026564;28;20043;-76
2023/05/26 04:24:09;;;;;;;26.23;5.35;;;8.50;99.90;;;;;;5057996;28;20421;-76
2023/05/26 04:26:35;;;;;;;27.75;4.93;;;8.60;99.90;;;;;;5027044;28;20041;-76
2023/05/26 04:29:01;;;;;;;20.70;4.70;;;8.60;99.90;;;;;;5062228;28;20075;-76
2023/05/26 04:31:30;;;;;;;26.90;5.15;;;8.60;99.90;;;;;;5044948;28;20040;-76
2023/05/26 04:33:59;;;;;;;26.55;6.90;;;8.60;99.90;;;;;;5062011;28;20579;-76
2023/05/26 04:36:25;;;;;;;22.65;5.22;;;9.00;99.90;;;;;;5063230;28;20143;-75
2023/05/26 04:38:51;;;;;;;19.08;4.55;;;8.80;99.90;;;;;;5060413;28;20036;-76
2023/05/26 04:41:18;;;;;;;19.60;4.32;;;8.90;99.90;;;;;;5058873;28;20101;-75
2023/05/26 04:43:45;;;;;;;23.02;4.70;;;9.00;99.90;;;;;;5056982;28;20045;-76
2023/05/26 04:46:11;;;;;;;25.70;5.32;;;9.00;99.90;;;;;;5040893;28;20123;-75
2023/05/26 04:48:40;;;;;;;22.77;4.82;;;9.00;99.90;;;;;;5063646;28;20574;-76
2023/05/26 04:51:07;;;;;;;20.70;4.93;;;9.10;99.90;;;;;;5061277;28;20079;-76
2023/05/26 04:53:32;;;;;;;20.52;5.00;;;9.10;99.90;;;;;;5060594;28;20037;-75
2023/05/26 04:56:00;;;;;;;19.60;4.88;;;9.20;99.90;;;;;;5042929;28;20043;-76
2023/05/26 04:58:25;;;;;;;23.75;4.95;;;9.30;99.90;;;;;;5057110;28;20052;-76
2023/05/26 05:00:51;;;;;;;25.52;5.03;;;9.40;99.90;;;;;;5057185;28;20101;-75
2023/05/26 05:03:17;;;;;;;18.42;4.63;;;9.50;99.90;;;;;;5043076;28;20785;-75
2023/05/26 05:05:42;;;;;;;23.98;4.80;;;9.60;99.90;;;;;;5060521;28;20036;-75
2023/05/26 05:08:08;;;;;;;25.33;4.88;;;9.60;99.90;;;;;;5062989;28;20033;-75
2023/05/26 05:10:34;;;;;;;22.10;4.95;;;9.70;99.90;;;;;;5057047;28;20028;-75
2023/05/26 05:13:00;;;;;;;19.95;4.70;;;9.80;99.90;;;;;;5039342;28;20488;-75
2023/05/26 05:15:26;;;;;;;23.42;4.80;;;9.90;99.90;;;;;;5044577;28;20033;-76
2023/05/26 05:17:52;;;;;;;25.05;5.10;;;10.00;99.90;;;;;;5064305;28;20048;-76
2023/05/26 05:20:18;;;;;;;20.50;4.85;;;10.10;99.90;;;;;;5060036;28;20075;-76
2023/05/26 05:22:45;;;;;;;23.98;5.13;;;10.10;99.90;;;;;;5047757;28;20119;-75
2023/05/26 05:25:10;;;;;;;22.83;5.97;;;10.30;99.90;;;;;;5043037;28;20048;-75
2023/05/26 05:27:36;;;;;;;21.70;4.75;;;10.30;99.90;;;;;;5055838;28;20102;-75
2023/05/26 05:30:02;;;;;;;26.98;5.43;;;10.40;99.90;;;;;;5042178;28;20124;-75
2023/05/26 05:32:28;;;;;;;25.98;4.80;;;10.60;99.90;;;;;;5056438;28;20037;-75
2023/05/26 05:34:55;;;;;;;21.70;5.20;;;10.60;99.90;;;;;;5059062;28;20074;-75
2023/05/26 05:37:20;;;;;;;25.25;5.40;;;10.70;99.90;;;;;;5065527;28;20036;-75
2023/05/26 05:39:46;;;;;;;23.73;4.50;;;10.80;99.90;;;;;;5063171;28;20045;-75
2023/05/26 05:42:12;;;;;;;21.30;5.03;;;10.90;99.90;;;;;;5046395;28;20036;-75
2023/05/26 05:44:37;;;;;;;25.70;5.60;;;11.00;99.90;;;;;;5046400;28;20079;-76
2023/05/26 05:47:03;;;;;;;22.88;5.43;;;11.00;99.90;;;;;;5065221;28;20518;-75
2023/05/26 05:49:29;;;;;;;21.25;4.50;;;11.10;99.90;;;;;;5043693;28;20136;-75
2023/05/26 05:51:55;;;;;;;24.25;5.25;;;11.20;99.90;;;;;;5063702;28;20127;-75
2023/05/26 05:54:20;;;;;;;17.77;4.20;;;11.20;99.90;;;;;;5059664;28;20048;-76
2023/05/26 05:56:46;;;;;;;21.73;4.78;;;11.20;99.90;;;;;;5045967;28;20036;-76
2023/05/26 05:59:12;;;;;;;20.40;5.10;;;11.30;99.90;;;;;;5060386;28;20041;-76
2023/05/26 06:01:38;;;;;;;24.85;5.07;;;11.40;99.90;;;;;;5064191;28;20083;-76
2023/05/26 06:04:03;;;;;;;21.02;4.70;;;11.60;99.90;;;;;;5030440;28;20410;-75
2023/05/26 06:06:31;;;;;;;21.85;4.70;;;11.60;99.90;;;;;;5046915;28;20040;-76
2023/05/26 06:08:57;;;;;;;22.95;4.82;;;11.70;99.90;;;;;;5048432;28;20044;-76
2023/05/26 06:11:23;;;;;;;22.13;6.00;;;;;;;;;;5053360;28;20054;-75
2023/05/26 06:13:48;;;;;;;18.05;4.15;;;11.60;99.90;;;;;;5054238;28;20044;-75
2023/05/26 06:16:14;;;;;;;23.77;4.32;;;11.60;99.90;;;;;;5039650;28;20045;-76
2023/05/26 06:18:40;;;;;;;15.02;4.13;;;11.50;99.90;;;;;;5038099;28;20052;-76
2023/05/26 06:21:06;;;;;;;17.92;4.13;;;11.50;99.90;;;;;;5010507;28;20441;-76
2023/05/26 06:23:31;;;;;;;19.35;4.57;;;11.30;99.90;;;;;;5038139;28;20048;-76
2023/05/26 06:25:57;;;;;;;22.85;4.63;;;11.30;99.90;;;;;;5037778;28;20513;-76
2023/05/26 06:28:23;;;;;;;26.92;5.50;;;11.30;99.90;;;;;;5041789;28;20406;-77
2023/05/26 06:30:49;;;;;;;23.95;5.00;;;11.40;99.90;;;;;;5042556;28;20062;-76
2023/05/26 06:33:15;;;;;;;17.15;3.85;;;11.60;99.90;;;;;;5026812;28;20110;-75
2023/05/26 06:35:41;;;;;;;17.52;3.97;;;11.70;99.90;;;;;;5061503;28;20087;-77
2023/05/26 06:38:06;;;;;;;17.08;4.57;;;12.00;99.90;;;;;;5024996;28;20132;-76
2023/05/26 06:40:32;;;;;;;21.85;4.22;;;12.10;99.90;;;;;;5026606;28;20608;-76
2023/05/26 06:42:58;;;;;;;20.13;4.78;;;12.20;99.90;;;;;;5056607;28;20561;-76
2023/05/26 06:45:23;;;;;;;17.20;3.95;;;12.40;99.90;;;;;;5060894;28;20032;-77
2023/05/26 06:47:49;;;;;;;21.55;4.22;;;12.50;99.90;;;;;;5041304;28;20033;-77
2023/05/26 06:50:15;;;;;;;19.42;4.63;;;12.50;99.90;;;;;;5055292;28;20059;-76
2023/05/26 06:52:40;;;;;;;22.20;4.60;;;12.60;99.90;;;;;;5025731;28;20148;-76
2023/05/26 06:55:06;;;;;;;18.73;4.47;;;12.60;99.90;;;;;;5025376;28;20036;-76
2023/05/26 06:57:32;;;;;;;21.70;5.30;;;12.70;99.90;;;;;;5023175;28;20040;-76
2023/05/26 06:59:58;;;;;;;19.98;4.10;;;12.70;99.90;;;;;;5053593;28;20383;-76
2023/05/26 07:02:24;;;;;;;19.25;4.45;;;12.80;99.90;;;;;;5057116;28;20033;-76
2023/05/26 07:04:50;;;;;;;18.73;4.43;;;12.80;99.90;;;;;;5041769;28;20120;-76
2023/05/26 07:07:16;;;;;;;15.23;3.65;;;12.90;99.90;;;;;;5058878;28;20066;-76
2023/05/26 07:09:41;;;;;;;13.55;3.80;;;12.90;99.90;;;;;;5053794;28;20129;-76
2023/05/26 07:12:07;;;;;;;17.63;3.70;;;12.90;99.90;;;;;;5063756;28;20040;-76
2023/05/26 07:14:33;;;;;;;19.92;4.13;;;12.90;99.90;;;;;;5026302;28;20048;-76
2023/05/26 07:16:59;;;;;;;18.38;4.07;;;13.00;99.90;;;;;;5055892;28;20048;-75
2023/05/26 07:19:24;;;;;;;19.02;3.80;;;13.00;99.90;;;;;;5022225;28;20506;-76
2023/05/26 07:21:50;;;;;;;16.08;3.67;;;13.10;99.90;;;;;;5024281;28;20049;-76
2023/05/26 07:24:17;;;;;;;16.42;3.83;;;13.10;99.90;;;;;;5058876;28;20056;-75
2023/05/26 07:26:43;;;;;;;18.23;4.13;;;13.20;99.90;;;;;;5045107;28;20098;-76
2023/05/26 07:29:08;;;;;;;18.52;3.65;;;13.30;99.90;;;;;;5057129;28;20044;-76
2023/05/26 07:31:34;;;;;;;18.50;3.67;;;13.30;99.90;;;;;;5041304;28;21059;-76
2023/05/26 07:34:00;;;;;;;18.55;4.30;;;13.40;99.90;;;;;;5040036;28;20067;-76
2023/05/26 07:36:25;;;;;;;15.88;3.97;;;13.40;99.90;;;;;;5061030;28;20442;-76
2023/05/26 07:38:51;;;;;;;16.23;3.65;;;13.40;99.90;;;;;;5055801;28;20076;-76
2023/05/26 07:41:17;;;;;;;16.67;3.33;;;13.40;99.90;;;;;;5022270;28;20036;-76
2023/05/26 07:43:42;;;;;;;19.52;4.72;;;13.50;99.90;;;;;;5060146;28;20498;-75
2023/05/26 07:46:08;;;;;;;11.88;3.25;;;13.50;99.90;;;;;;5053816;28;20044;-76
2023/05/26 07:48:34;;;;;;;13.18;3.47;;;13.50;99.90;;;;;;5039406;28;20032;-76
2023/05/26 07:51:00;;;;;;;15.90;3.22;;;13.60;99.90;;;;;;5023417;28;20470;-76
2023/05/26 07:53:25;;;;;;;15.93;3.85;;;13.60;99.90;;;;;;5041093;28;20102;-76
2023/05/26 07:55:51;;;;;;;19.25;4.45;;;13.70;99.90;;;;;;5036587;28;20146;-77
2023/05/26 07:58:17;;;;;;;16.05;3.53;;;13.70;99.90;;;;;;5044960;28;20033;-76
2023/05/26 08:00:43;;;;;;;14.23;3.45;;;13.70;99.90;;;;;;5055871;28;20041;-76
2023/05/26 08:03:08;;;;;;;17.60;3.63;;;13.80;99.90;;;;;;5039859;28;20039;-76
2023/05/26 08:05:34;;;;;;;17.67;4.18;;;13.90;99.90;;;;;;5039439;28;20515;-76
2023/05/26 08:08:00;;;;;;;17.13;3.67;;;13.90;99.90;;;;;;5039609;28;20055;-75
2023/05/26 08:10:25;;;;;;;16.00;3.78;;;14.00;99.90;;;;;;5057351;28;20067;-76
2023/05/26 08:12:53;;;;;;;15.48;3.90;;;14.10;99.90;;;;;;5027889;28;20177;-75
2023/05/26 08:15:24;;;;;;;15.50;3.85;;;14.10;99.90;;;;;;5058189;28;20057;-76
2023/05/26 08:17:50;;;;;;;14.30;3.50;;;14.10;99.90;;;;;;5038153;28;20052;-75
2023/05/26 08:20:16;;;;;;;16.25;4.07;;;14.10;99.90;;;;;;5052792;28;20064;-76
2023/05/26 08:22:41;;;;;;;16.20;3.53;;;14.10;99.90;;;;;;5058694;28;20036;-76
2023/05/26 08:25:08;;;;;;;14.38;3.40;;;14.20;99.90;;;;;;5024626;28;20043;-76
2023/05/26 08:27:33;;;;;;;17.90;3.40;;;14.20;99.90;;;;;;5057726;28;20052;-76
2023/05/26 08:29:59;;;;;;;15.60;3.58;;;14.30;99.90;;;;;;5039543;28;20198;-76
2023/05/26 08:32:25;;;;;;;15.55;3.50;;;14.30;99.90;;;;;;5037383;28;20033;-76
2023/05/26 08:34:51;;;;;;;14.32;3.85;;;14.40;99.90;;;;;;5042767;28;20044;-76
2023/05/26 08:37:18;;;;;;;14.52;3.90;;;14.40;99.90;;;;;;5038409;28;20095;-76
2023/05/26 08:39:44;;;;;;;16.30;3.50;;;14.50;99.90;;;;;;5034971;28;20037;-76
2023/05/26 08:42:15;;;;;;;18.25;3.95;;;14.50;99.90;;;;;;5060792;28;20040;-76
2023/05/26 08:44:43;;;;;;;16.65;3.83;;;14.60;99.90;;;;;;5052465;28;20033;-76
2023/05/26 08:47:11;;;;;;;16.77;4.03;;;14.70;99.90;;;;;;5058845;28;20044;-76
2023/05/26 08:49:44;;;;;;;18.83;4.22;;;14.70;99.90;;;;;;5056512;28;20045;-76
2023/05/26 08:52:16;;;;;;;15.35;3.97;;;14.70;99.90;;;;;;5037812;28;20116;-76
2023/05/26 08:54:43;;;;;;;15.20;3.20;;;14.70;99.90;;;;;;5054040;28;20044;-76
2023/05/26 08:57:10;;;;;;;13.45;3.70;;;14.70;99.90;;;;;;5042038;28;20109;-77
2023/05/26 08:59:37;;;;;;;20.95;5.03;;;14.70;99.90;;;;;;5030868;28;20185;-76
2023/05/26 09:02:03;;;;;;;19.15;4.10;;;14.60;99.90;;;;;;5060438;28;20056;-76
2023/05/26 09:04:30;;;;;;;17.83;3.88;;;14.70;99.90;;;;;;5062208;28;20032;-76
2023/05/26 09:06:57;;;;;;;15.95;3.63;;;14.80;99.90;;;;;;5042962;28;20601;-76
2023/05/26 09:09:23;;;;;;;19.52;4.15;;;14.80;99.90;;;;;;5058845;28;20139;-76
2023/05/26 09:11:48;;;;;;;14.80;3.72;;;15.00;99.90;;;;;;5031181;28;20363;-76
2023/05/26 09:14:16;;;;;;;13.50;3.72;;;14.90;99.90;;;;;;5061404;28;20051;-76
2023/05/26 09:16:43;;;;;;;15.15;3.70;;;14.90;99.90;;;;;;5026456;28;20561;-76
2023/05/26 09:19:17;;;;;;;16.95;3.60;;;14.80;99.90;;;;;;5048255;28;20044;-75
2023/05/26 09:21:50;;;;;;;14.02;3.83;;;14.90;99.90;;;;;;5059750;28;20299;-75
2023/05/26 09:24:18;;;;;;;13.95;3.67;;;14.90;99.90;;;;;;5040599;28;20084;-75
2023/05/26 09:26:45;;;;;;;16.73;3.58;;;15.00;99.90;;;;;;5042492;28;20044;-76
2023/05/26 09:29:11;;;;;;;17.90;3.70;;;15.10;99.90;;;;;;5056920;28;20119;-76
2023/05/26 09:31:46;;;;;;;15.75;3.50;;;15.10;99.90;;;;;;5039171;28;20055;-77
2023/05/26 09:34:13;;;;;;;16.65;3.95;;;15.20;99.90;;;;;;5057329;28;20580;-76
2023/05/26 09:36:40;;;;;;;14.00;3.45;;;15.20;99.90;;;;;;5044606;28;20047;-76
2023/05/26 09:39:08;;;;;;;14.80;3.63;;;15.30;99.90;;;;;;5039132;28;20572;-76
2023/05/26 09:41:39;;;;;;;18.15;3.58;;;15.30;99.90;;;;;;5040687;28;20086;-76
2023/05/26 09:44:16;;;;;;;16.60;3.75;;;15.30;99.90;;;;;;5042248;28;20434;-76
2023/05/26 09:46:43;;;;;;;12.70;3.53;;;15.20;99.90;;;;;;5062548;28;20037;-76
2023/05/26 09:49:17;;;;;;;15.65;3.75;;;15.20;99.90;;;;;;5040909;28;20048;-76
2023/05/26 09:51:48;;;;;;;16.60;3.97;;;15.40;99.90;;;;;;5046056;28;20425;-76
2023/05/26 09:54:15;;;;;;;17.25;3.70;;;15.50;99.90;;;;;;5046729;28;20045;-76
2023/05/26 09:56:51;;;;;;;15.98;3.47;;;15.70;99.90;;;;;;5058552;28;20056;-76
2023/05/26 09:59:20;;;;;;;15.60;3.53;;;15.80;99.90;;;;;;5043651;28;20037;-76
2023/05/26 10:01:47;;;;;;;16.00;4.03;;;15.70;99.90;;;;;;5061605;28;20045;-76
2023/05/26 10:04:14;;;;;;;18.17;3.85;;;15.50;99.90;;;;;;5043996;28;20029;-76
2023/05/26 10:06:41;;;;;;;15.27;3.78;;;15.40;99.90;;;;;;5057443;28;20040;-75
2023/05/26 10:09:07;;;;;;;14.45;3.85;;;15.50;99.90;;;;;;5037170;28;20037;-76
2023/05/26 10:11:39;;;;;;;14.90;3.88;;;15.50;99.90;;;;;;5063879;28;20498;-76
2023/05/26 10:14:05;;;;;;;17.05;3.75;;;15.50;99.90;;;;;;5059649;28;20043;-76
2023/05/26 10:16:32;;;;;;;15.30;3.38;;;15.60;99.90;;;;;;5058733;28;20047;-77
2023/05/26 10:18:59;;;;;;;14.85;3.75;;;15.50;99.90;;;;;;5028031;28;20098;-75
2023/05/26 10:21:33;;;;;;;14.80;3.85;;;15.50;99.90;;;;;;5047169;28;20513;-76
2023/05/26 10:24:15;;;;;;;16.17;3.42;;;15.60;99.90;;;;;;5059885;28;20049;-76
2023/05/26 10:26:53;;;;;;;16.27;4.22;;;15.60;99.90;;;;;;5045575;28;20439;-76
2023/05/26 10:29:26;;;;;;;15.32;3.60;;;15.70;99.90;;;;;;5058195;28;20032;-76
2023/05/26 10:31:52;;;;;;;14.88;3.40;;;15.60;99.90;;;;;;5043998;28;20048;-76
2023/05/26 10:34:45;;;;;;;17.15;4.03;;;15.50;99.90;;;;;;5043947;28;20043;-76
2023/05/26 10:37:15;;;;;;;17.83;4.30;;;15.60;99.90;;;;;;5041591;28;20047;-76
2023/05/26 10:39:42;;;;;;;17.02;3.40;;;15.60;99.90;;;;;;5054948;28;20049;-75
2023/05/26 10:42:19;;;;;;;16.60;4.13;;;15.60;99.90;;;;;;5062363;28;20493;-75
2023/05/26 10:44:48;;;;;;;18.00;4.55;;;15.60;99.90;;;;;;5041471;28;20066;-76
2023/05/26 10:47:18;;;;;;;14.50;3.72;;;15.60;99.90;;;;;;5053994;28;20048;-75
2023/05/26 10:49:58;;;;;;;13.65;3.75;;;15.80;99.90;;;;;;5058132;28;20044;-77
2023/05/26 10:52:26;;;;;;;14.98;3.35;;;15.90;99.90;;;;;;5059853;28;20049;-76
2023/05/26 10:54:53;;;;;;;15.43;3.85;;;16.00;99.90;;;;;;5061952;28;20426;-75
2023/05/26 10:57:32;;;;;;;16.27;4.20;;;16.00;99.90;;;;;;5062254;28;20412;-75
2023/05/26 11:00:19;;;;;;;16.77;4.13;;;16.20;99.90;;;;;;5060272;28;20045;-76
2023/05/26 11:02:44;;;;;;;14.52;4.20;;;16.10;99.90;;;;;;5059512;28;20044;-76
2023/05/26 11:05:32;;;;;;;18.92;4.10;;;16.10;99.90;;;;;;5059021;28;20040;-76
2023/05/26 11:07:58;;;;;;;14.93;3.90;;;16.20;99.90;;;;;;5053870;28;20097;-75
2023/05/26 11:10:24;;;;;;;18.58;4.25;;;16.10;99.90;;;;;;5036749;28;20037;-76
2023/05/26 11:12:57;;;;;;;17.20;4.07;;;16.00;99.90;;;;;;5058176;28;20055;-76
2023/05/26 11:15:33;;;;;;;18.15;4.45;;;15.80;99.90;;;;;;5063174;28;20112;-76
2023/05/26 11:18:09;;;;;;;15.82;3.65;;;15.70;99.90;;;;;;5050507;28;20406;-76
2023/05/26 11:20:35;;;;;;;21.60;4.22;;;16.00;99.90;;;;;;5047569;28;20043;-76
2023/05/26 11:23:02;;;;;;;18.25;4.75;;;16.00;99.90;;;;;;5051187;28;20503;-76
2023/05/26 11:25:28;;;;;;;20.92;4.57;;;15.80;99.90;;;;;;5046425;28;20041;-76
2023/05/26 11:27:54;;;;;;;17.35;4.55;;;16.00;99.90;;;;;;5051684;28;20062;-77
2023/05/26 11:30:20;;;;;;;17.73;4.35;;;16.10;99.90;;;;;;5043275;28;20800;-75
2023/05/26 11:32:51;;;;;;;17.40;4.35;;;16.10;99.90;;;;;;5025084;28;20044;-75
2023/05/26 11:35:25;;;;;;;17.65;4.03;;;16.00;99.90;;;;;;5036865;28;20048;-75
2023/05/26 11:37:51;;;;;;;17.13;4.00;;;15.80;99.90;;;;;;5044505;28;20080;-75
2023/05/26 11:40:17;;;;;;;17.63;3.83;;;15.90;99.90;;;;;;5062256;28;20045;-76
2023/05/26 11:42:53;;;;;;;17.08;4.40;;;15.90;99.90;;;;;;5041344;28;20032;-76
2023/05/26 11:45:21;;;;;;;16.23;3.88;;;16.00;99.90;;;;;;5044147;28;20032;-75
2023/05/26 11:47:48;;;;;;;17.25;3.75;;;15.90;99.90;;;;;;5061044;28;20647;-76
2023/05/26 11:50:14;;;;;;;22.30;4.00;;;16.00;99.90;;;;;;5060568;28;20032;-76
2023/05/26 11:52:47;;;;;;;14.60;4.13;;;16.20;99.90;;;;;;5026218;28;20047;-76
2023/05/26 11:55:14;;;;;;;13.57;3.60;;;16.10;99.90;;;;;;5056371;28;20067;-76
2023/05/26 11:57:42;;;;;;;21.77;4.35;;;16.00;99.90;;;;;;5044388;28;20536;-76
2023/05/26 12:00:18;;;;;;;18.23;4.20;;;16.10;99.90;;;;;;5058578;28;20041;-75
2023/05/26 12:02:47;;;;;;;18.00;3.83;;;16.30;99.90;;;;;;5060214;28;20048;-76
2023/05/26 12:05:29;;;;;;;19.73;3.80;;;16.50;99.90;;;;;;5042667;28;20044;-75
2023/05/26 12:08:08;;;;;;;16.17;4.05;;;16.40;99.90;;;;;;5058871;28;20550;-76
2023/05/26 12:10:35;;;;;;;15.90;3.80;;;16.50;99.90;;;;;;5043066;28;20047;-76
2023/05/26 12:13:02;;;;;;;15.20;3.85;;;16.40;99.90;;;;;;5044237;28;20412;-75
2023/05/26 12:15:28;;;;;;;16.13;3.78;;;16.50;99.90;;;;;;5059469;28;20040;-76
2023/05/26 12:17:55;;;;;;;16.95;4.13;;;16.40;99.90;;;;;;5043886;28;20051;-76
2023/05/26 12:20:23;;;;;;;18.05;4.43;;;16.60;99.90;;;;;;5040869;28;20622;-75
2023/05/26 12:23:03;;;;;;;16.15;3.72;;;16.50;99.90;;;;;;5060244;28;20032;-77
2023/05/26 12:25:30;;;;;;;15.52;3.90;;;16.30;99.90;;;;;;5045026;28;20611;-75
2023/05/26 12:27:56;;;;;;;14.38;3.90;;;16.20;99.90;;;;;;5039046;28;20068;-76
2023/05/26 12:30:26;;;;;;;16.08;3.70;;;16.10;99.90;;;;;;5054106;28;20049;-76
2023/05/26 12:32:52;;;;;;;16.73;4.13;;;16.20;99.90;;;;;;5058516;28;20098;-76
2023/05/26 12:35:18;;;;;;;15.38;3.50;;;16.40;99.90;;;;;;5050784;28;20048;-75
2023/05/26 12:37:44;;;;;;;15.13;3.67;;;16.30;99.90;;;;;;5053003;28;20049;-75
2023/05/26 12:40:10;;;;;;;15.57;4.10;;;16.30;99.90;;;;;;5060492;28;20047;-75
2023/05/26 12:42:37;;;;;;;14.95;3.53;;;16.50;99.90;;;;;;5035383;28;20435;-75